KIAD/IAD METAR and TAF weather

Enter ICAO airport designator
Station Type Date Time Source
KIAD METAR 2020/09/28 06:52 UTC NOAA

KIAD 280652Z 16005KT 10SM BKN220 19/18 A2988 RMK AO2 SLP115 T01890178 $


Station Type Date Time Source
KIAD Decoded METAR 2020/09/28 06:52 UTC NOAA

DULLES INTERNATIONAL AIRPORT, VA, United States (KIAD) 38-56N 077-27W 93M
Sep 28, 2020 - 02:52 AM EDT / 2020.09.28 0652 UTC
Wind: from the SSE (160 degrees) at 6 MPH (5 KT):0
Visibility: 10 mile(s):0
Sky conditions: mostly cloudy
Temperature: 66.0 F (18.9 C)
Dew Point: 64.0 F (17.8 C)
Relative Humidity: 93%
Pressure (altimeter): 29.88 in. Hg (1011 hPa)
ob: KIAD 280652Z 16005KT 10SM BKN220 19/18 A2988 RMK AO2 SLP115 T01890178
cycle: 7

Station Type Date Time Source
KIAD TAF 2020/09/28 06:39 UTC NOAA

TAF KIAD 280536Z 2806/2912 00000KT P6SM FEW060 OVC150
FM281300 18006KT P6SM BKN060
FM281900 18010G17KT P6SM SCT080
FM290700 18008KT P6SM BKN080
FM291100 19006KT P6SM BKN008
AMD NOT SKED 2806/2809

Example: see airport list